createdAt,value
2023-03-13T00:01:09.606Z,49.40
2023-03-13T00:03:36.135Z,50.10
2023-03-13T00:06:02.734Z,49.40
2023-03-13T00:08:29.960Z,49.40
2023-03-13T00:10:56.926Z,49.40
2023-03-13T00:13:23.482Z,49.40
2023-03-13T00:15:50.040Z,49.40
2023-03-13T00:18:16.585Z,49.40
2023-03-13T00:20:43.131Z,49.40
2023-03-13T00:23:09.673Z,49.40
2023-03-13T00:25:36.316Z,49.30
2023-03-13T00:28:02.878Z,49.40
2023-03-13T00:30:29.529Z,49.40
2023-03-13T00:32:56.337Z,49.40
2023-03-13T00:35:23.032Z,49.40
2023-03-13T00:37:49.670Z,49.30
2023-03-13T00:40:16.311Z,49.40
2023-03-13T00:42:42.854Z,49.40
2023-03-13T00:45:09.983Z,49.40
2023-03-13T00:47:36.700Z,49.40
2023-03-13T00:50:03.618Z,49.40
2023-03-13T00:52:30.302Z,49.30
2023-03-13T00:54:56.980Z,49.40
2023-03-13T00:57:23.588Z,49.40
2023-03-13T00:59:50.150Z,49.40
2023-03-13T01:02:16.852Z,49.40
2023-03-13T01:04:43.507Z,49.40
2023-03-13T01:07:10.056Z,49.30
2023-03-13T01:09:36.593Z,49.40
2023-03-13T01:12:03.446Z,49.40
2023-03-13T01:14:30.074Z,49.40
2023-03-13T01:16:56.651Z,49.40
2023-03-13T01:19:23.296Z,49.40
2023-03-13T01:21:49.889Z,49.30
2023-03-13T01:24:17.011Z,49.40
2023-03-13T01:26:43.645Z,49.30
2023-03-13T01:29:10.196Z,49.30
2023-03-13T01:31:36.913Z,49.30
2023-03-13T01:34:05.592Z,49.40
2023-03-13T01:36:32.379Z,49.30
2023-03-13T01:39:00.791Z,49.40
2023-03-13T01:41:29.316Z,49.40
2023-03-13T01:43:56.959Z,49.40
2023-03-13T01:46:28.456Z,49.30
2023-03-13T01:49:17.270Z,49.40
2023-03-13T01:51:59.909Z,49.30
2023-03-13T01:54:51.691Z,49.40
2023-03-13T01:57:42.589Z,49.30
2023-03-13T02:00:12.339Z,49.30
2023-03-13T02:02:42.897Z,49.30
2023-03-13T02:05:09.663Z,49.30
2023-03-13T02:07:50.662Z,49.40
2023-03-13T02:10:18.521Z,49.30
2023-03-13T02:12:45.683Z,49.40
2023-03-13T02:15:16.556Z,49.30
2023-03-13T02:17:44.446Z,49.30
2023-03-13T02:20:14.116Z,49.30
2023-03-13T02:22:52.430Z,49.30
2023-03-13T02:25:24.980Z,49.30
2023-03-13T02:27:58.613Z,49.30
2023-03-13T02:30:25.425Z,49.30
2023-03-13T02:32:52.209Z,49.30
2023-03-13T02:35:21.230Z,49.90
2023-03-13T02:37:52.249Z,49.40
2023-03-13T02:40:24.517Z,49.30
2023-03-13T02:42:52.179Z,49.30
2023-03-13T02:45:19.073Z,49.30
2023-03-13T02:47:45.659Z,49.30
2023-03-13T02:50:14.051Z,49.30
2023-03-13T02:52:45.228Z,49.20
2023-03-13T02:55:18.314Z,49.30
2023-03-13T02:57:45.119Z,49.20
2023-03-13T03:00:12.976Z,49.20
2023-03-13T03:02:39.563Z,49.30
2023-03-13T03:05:06.596Z,49.30
2023-03-13T03:07:33.321Z,49.30
2023-03-13T03:09:59.948Z,49.20
2023-03-13T03:12:26.518Z,49.20
2023-03-13T03:14:53.536Z,49.20
2023-03-13T03:17:20.328Z,49.20
2023-03-13T03:19:46.916Z,49.30
2023-03-13T03:22:13.495Z,49.20
2023-03-13T03:24:40.292Z,49.20
2023-03-13T03:27:06.866Z,49.20
2023-03-13T03:29:33.461Z,49.20
2023-03-13T03:32:00.021Z,49.20
2023-03-13T03:34:26.681Z,49.30
2023-03-13T03:36:53.290Z,49.20
2023-03-13T03:39:19.977Z,49.20
2023-03-13T03:41:46.622Z,49.20
2023-03-13T03:44:13.211Z,49.20
2023-03-13T03:46:39.820Z,49.20
2023-03-13T03:49:06.480Z,49.20
2023-03-13T03:51:33.086Z,49.20
2023-03-13T03:53:59.923Z,49.20
2023-03-13T03:56:26.599Z,49.20
2023-03-13T03:58:53.225Z,49.20
2023-03-13T04:01:19.829Z,49.20
2023-03-13T04:03:48.252Z,49.20
2023-03-13T04:06:14.949Z,49.20
2023-03-13T04:08:41.754Z,49.20
2023-03-13T04:11:08.381Z,49.20
2023-03-13T04:13:35.002Z,49.20
2023-03-13T04:16:07.299Z,49.20
2023-03-13T04:18:33.943Z,49.10
2023-03-13T04:21:02.493Z,49.20
2023-03-13T04:23:29.119Z,49.20
2023-03-13T04:25:55.768Z,49.20
2023-03-13T04:28:22.369Z,49.20
2023-03-13T04:30:49.001Z,49.20
2023-03-13T04:33:15.640Z,49.20
2023-03-13T04:35:42.304Z,49.20
2023-03-13T04:38:08.893Z,49.20
2023-03-13T04:40:35.419Z,49.20
2023-03-13T04:43:01.980Z,49.20
2023-03-13T04:45:28.620Z,49.20
2023-03-13T04:47:56.031Z,49.20
2023-03-13T04:50:22.588Z,49.10
2023-03-13T04:52:49.723Z,49.20
2023-03-13T04:55:17.004Z,49.20
2023-03-13T04:57:43.684Z,49.20
2023-03-13T05:00:11.432Z,49.20
2023-03-13T05:02:38.039Z,49.20
2023-03-13T05:05:04.979Z,49.10
2023-03-13T05:07:31.703Z,49.10
2023-03-13T05:09:58.264Z,49.20
2023-03-13T05:12:24.866Z,49.10
2023-03-13T05:14:52.528Z,49.20
2023-03-13T05:17:19.138Z,49.20
2023-03-13T05:19:45.691Z,49.10
2023-03-13T05:22:12.278Z,49.10
2023-03-13T05:24:41.508Z,49.20
2023-03-13T05:27:08.636Z,49.10
2023-03-13T05:29:35.218Z,49.20
2023-03-13T05:32:01.772Z,49.10
2023-03-13T05:34:28.350Z,49.20
2023-03-13T05:36:54.895Z,49.20
2023-03-13T05:39:21.552Z,49.10
2023-03-13T05:41:48.177Z,49.10
2023-03-13T05:44:14.837Z,49.20
2023-03-13T05:46:41.529Z,49.20
2023-03-13T05:49:08.165Z,49.20
2023-03-13T05:51:34.715Z,49.10
2023-03-13T05:54:01.249Z,49.10
2023-03-13T05:56:27.860Z,49.10
2023-03-13T05:58:54.428Z,49.40
2023-03-13T06:01:21.110Z,49.50
2023-03-13T06:03:47.868Z,49.50
2023-03-13T06:06:14.509Z,49.50
2023-03-13T06:08:41.120Z,49.60
2023-03-13T06:11:07.780Z,49.70
2023-03-13T06:13:34.565Z,49.80
2023-03-13T06:16:01.228Z,49.90
2023-03-13T06:18:28.002Z,50.10
2023-03-13T06:20:59.814Z,50.20
2023-03-13T06:23:27.145Z,50.00
2023-03-13T06:25:54.339Z,50.10
2023-03-13T06:28:21.354Z,50.20
2023-03-13T06:30:48.121Z,49.70
2023-03-13T06:33:14.960Z,50.90
2023-03-13T06:35:55.149Z,49.80
2023-03-13T06:38:24.692Z,51.00
2023-03-13T06:40:51.394Z,52.50
2023-03-13T06:43:18.596Z,52.10
2023-03-13T06:45:45.360Z,52.10
2023-03-13T06:48:11.949Z,52.20
2023-03-13T06:50:39.872Z,52.20
2023-03-13T06:53:06.763Z,52.20
2023-03-13T06:55:33.503Z,52.30
2023-03-13T06:58:00.139Z,52.20
2023-03-13T07:00:26.765Z,52.30
2023-03-13T07:02:53.907Z,52.20
2023-03-13T07:05:20.481Z,52.10
2023-03-13T07:07:47.125Z,52.10
2023-03-13T07:10:14.209Z,52.10
2023-03-13T07:12:40.925Z,52.00
2023-03-13T07:15:08.126Z,52.10
2023-03-13T07:17:34.985Z,52.10
2023-03-13T07:20:01.745Z,52.10
2023-03-13T07:22:28.354Z,52.10
2023-03-13T07:24:55.036Z,52.60
2023-03-13T07:27:22.583Z,52.00
2023-03-13T07:29:50.084Z,51.90
2023-03-13T07:32:16.826Z,51.90
2023-03-13T07:34:46.511Z,51.90
2023-03-13T07:37:13.952Z,51.90
2023-03-13T07:39:41.131Z,51.90
2023-03-13T07:42:09.009Z,51.80
2023-03-13T07:44:35.887Z,51.90
2023-03-13T07:47:02.540Z,52.50
2023-03-13T07:49:29.301Z,51.80
2023-03-13T07:51:55.938Z,51.80
2023-03-13T07:54:22.715Z,51.80
2023-03-13T07:56:50.849Z,51.80
2023-03-13T07:59:17.518Z,51.80
2023-03-13T08:01:44.101Z,51.80
2023-03-13T08:04:14.120Z,51.80
2023-03-13T08:06:41.965Z,51.80
2023-03-13T08:09:09.098Z,51.70
2023-03-13T08:11:35.984Z,51.70
2023-03-13T08:14:02.650Z,51.80
2023-03-13T08:16:34.015Z,51.80
2023-03-13T08:19:04.473Z,51.70
2023-03-13T08:21:36.590Z,51.70
2023-03-13T08:24:05.822Z,51.70
2023-03-13T08:26:34.257Z,51.60
2023-03-13T08:29:03.343Z,51.60
2023-03-13T08:31:36.233Z,51.70
2023-03-13T08:34:03.214Z,51.70
2023-03-13T08:36:37.360Z,51.60
2023-03-13T08:39:12.517Z,51.60
2023-03-13T08:41:40.761Z,51.60
2023-03-13T08:44:10.573Z,51.70
2023-03-13T08:46:37.709Z,51.50
2023-03-13T08:49:06.279Z,51.50
2023-03-13T08:51:33.399Z,51.60
2023-03-13T08:54:02.008Z,51.50
2023-03-13T08:56:30.384Z,51.50
2023-03-13T08:58:59.904Z,51.60
2023-03-13T09:01:29.238Z,52.10
2023-03-13T09:03:56.341Z,51.60
2023-03-13T09:06:23.517Z,51.60
2023-03-13T09:08:50.170Z,51.50
2023-03-13T09:11:20.970Z,51.60
2023-03-13T09:13:49.866Z,51.50
2023-03-13T09:16:19.481Z,51.50
2023-03-13T09:18:47.780Z,51.50
2023-03-13T09:21:17.671Z,51.60
2023-03-13T09:23:44.321Z,51.50
2023-03-13T09:26:12.233Z,51.50
2023-03-13T09:28:39.004Z,51.50
2023-03-13T09:31:08.878Z,51.50
2023-03-13T09:33:36.202Z,51.50
2023-03-13T09:36:02.816Z,51.50
2023-03-13T09:38:29.762Z,51.50
2023-03-13T09:41:06.266Z,51.50
2023-03-13T09:43:40.352Z,51.50
2023-03-13T09:46:15.627Z,51.40
2023-03-13T09:48:47.009Z,51.40
2023-03-13T09:51:29.199Z,51.40
2023-03-13T09:53:55.677Z,51.30
2023-03-13T09:56:31.672Z,51.30
2023-03-13T09:59:03.559Z,51.30
2023-03-13T10:01:31.596Z,51.20
2023-03-13T10:04:11.896Z,51.30
2023-03-13T10:06:42.492Z,51.20
2023-03-13T10:09:22.549Z,51.10
2023-03-13T10:12:24.341Z,51.20
2023-03-13T10:15:38.587Z,51.10
2023-03-13T10:18:21.485Z,51.10
2023-03-13T10:20:51.070Z,51.10
2023-03-13T10:23:27.509Z,51.00
2023-03-13T10:25:54.432Z,51.10
2023-03-13T10:28:22.482Z,51.00
2023-03-13T10:31:05.052Z,51.00
2023-03-13T10:33:34.438Z,51.00
2023-03-13T10:36:07.717Z,51.00
2023-03-13T10:38:45.636Z,51.00
2023-03-13T10:41:28.967Z,51.00
2023-03-13T10:44:16.009Z,50.90
2023-03-13T10:46:45.047Z,51.00
2023-03-13T10:49:19.800Z,50.90
2023-03-13T10:52:00.691Z,50.90
2023-03-13T10:54:35.181Z,50.80
2023-03-13T10:57:30.973Z,50.80
2023-03-13T10:59:59.187Z,50.90
2023-03-13T11:02:38.475Z,50.80
2023-03-13T11:05:24.204Z,50.70
2023-03-13T11:07:52.670Z,50.70
2023-03-13T11:10:30.110Z,50.70
2023-03-13T11:12:58.834Z,50.70
2023-03-13T11:15:52.020Z,50.70
2023-03-13T11:18:39.686Z,50.80
2023-03-13T11:21:17.694Z,50.80
2023-03-13T11:23:47.398Z,50.60
2023-03-13T11:26:22.988Z,50.80
2023-03-13T11:29:07.117Z,50.70
2023-03-13T11:31:41.395Z,50.90
2023-03-13T11:34:37.720Z,50.80
2023-03-13T11:37:13.232Z,50.90
2023-03-13T11:39:50.060Z,50.90
2023-03-13T11:42:38.501Z,50.90
2023-03-13T11:45:19.927Z,51.00
2023-03-13T11:48:09.541Z,50.80
2023-03-13T11:50:49.473Z,50.90
2023-03-13T11:53:59.774Z,51.60
2023-03-13T11:56:48.205Z,51.00
2023-03-13T11:59:29.848Z,51.00
2023-03-13T12:02:04.037Z,51.00
2023-03-13T12:04:38.940Z,50.90
2023-03-13T12:07:10.536Z,50.80
2023-03-13T12:09:45.776Z,50.70
2023-03-13T12:12:28.626Z,50.70
2023-03-13T12:15:08.508Z,50.70
2023-03-13T12:17:42.079Z,50.70
2023-03-13T12:20:50.146Z,50.70
2023-03-13T12:23:34.728Z,50.70
2023-03-13T12:26:13.883Z,50.70
2023-03-13T12:28:47.278Z,50.60
2023-03-13T12:31:27.362Z,50.60
2023-03-13T12:34:31.621Z,50.70
2023-03-13T12:37:23.490Z,50.60
2023-03-13T12:39:57.613Z,50.60
2023-03-13T12:42:58.458Z,51.40
2023-03-13T12:45:26.579Z,50.70
2023-03-13T12:48:17.399Z,50.70
2023-03-13T12:51:13.012Z,50.60
2023-03-13T12:53:48.401Z,50.70
2023-03-13T12:56:14.996Z,50.70
2023-03-13T12:58:51.683Z,50.50
2023-03-13T13:01:42.799Z,50.50
2023-03-13T13:04:17.717Z,50.60
2023-03-13T13:06:57.353Z,50.50
2023-03-13T13:09:26.915Z,50.40
2023-03-13T13:11:55.698Z,50.50
2023-03-13T13:14:22.233Z,50.50
2023-03-13T13:17:01.607Z,50.40
2023-03-13T13:19:28.113Z,50.50
2023-03-13T13:22:33.409Z,50.50
2023-03-13T13:25:00.930Z,50.40
2023-03-13T13:27:36.195Z,50.40
2023-03-13T13:30:19.747Z,50.40
2023-03-13T13:33:15.121Z,50.40
2023-03-13T13:35:42.387Z,50.40
2023-03-13T13:38:17.739Z,50.40
2023-03-13T13:41:03.450Z,50.30
2023-03-13T13:43:35.343Z,50.40
2023-03-13T13:46:24.833Z,50.30
2023-03-13T13:49:14.503Z,50.40
2023-03-13T13:52:03.958Z,50.30
2023-03-13T13:54:42.710Z,50.20
2023-03-13T13:57:12.469Z,50.20
2023-03-13T14:00:06.817Z,50.20
2023-03-13T14:02:38.305Z,50.20
2023-03-13T14:05:08.664Z,50.20
2023-03-13T14:07:41.406Z,50.10
2023-03-13T14:10:27.090Z,50.10
2023-03-13T14:12:58.991Z,50.10
2023-03-13T14:15:34.528Z,50.10
2023-03-13T14:18:09.563Z,50.00
2023-03-13T14:20:38.586Z,50.00
2023-03-13T14:23:08.235Z,50.10
2023-03-13T14:25:47.455Z,50.10
2023-03-13T14:28:22.543Z,50.00
2023-03-13T14:30:51.652Z,50.00
2023-03-13T14:33:18.720Z,50.10
2023-03-13T14:35:46.376Z,50.10
2023-03-13T14:38:24.339Z,50.00
2023-03-13T14:40:52.593Z,50.10
2023-03-13T14:43:30.808Z,50.10
2023-03-13T14:45:57.528Z,49.90
2023-03-13T14:48:32.870Z,49.90
2023-03-13T14:51:15.076Z,49.90
2023-03-13T14:54:01.161Z,49.90
2023-03-13T14:56:45.008Z,49.80
2023-03-13T14:59:26.080Z,49.80
2023-03-13T15:02:21.716Z,49.80
2023-03-13T15:05:11.014Z,49.70
2023-03-13T15:08:11.736Z,49.70
2023-03-13T15:10:40.545Z,49.60
2023-03-13T15:13:34.307Z,49.60
2023-03-13T15:16:01.993Z,49.60
2023-03-13T15:18:32.074Z,49.60
2023-03-13T15:21:19.472Z,49.70
2023-03-13T15:23:50.311Z,49.60
2023-03-13T15:26:17.200Z,49.60
2023-03-13T15:28:46.129Z,49.60
2023-03-13T15:31:13.892Z,49.60
2023-03-13T15:33:40.772Z,49.60
2023-03-13T15:36:08.096Z,49.60
2023-03-13T15:38:34.953Z,49.60
2023-03-13T15:41:01.610Z,49.60
2023-03-13T15:43:28.983Z,49.60
2023-03-13T15:45:55.796Z,49.60
2023-03-13T15:48:28.005Z,49.60
2023-03-13T15:51:01.397Z,49.60
2023-03-13T15:53:35.197Z,49.60
2023-03-13T15:56:03.161Z,49.70
2023-03-13T15:58:30.141Z,49.70
2023-03-13T16:00:57.678Z,49.70
2023-03-13T16:03:26.584Z,49.70
2023-03-13T16:05:54.442Z,49.70
2023-03-13T16:08:34.845Z,49.60
2023-03-13T16:11:02.289Z,49.60
2023-03-13T16:13:28.842Z,49.60
2023-03-13T16:15:55.479Z,49.60
2023-03-13T16:18:23.895Z,49.70
2023-03-13T16:20:51.771Z,49.70
2023-03-13T16:23:18.419Z,49.70
2023-03-13T16:25:46.592Z,49.80
2023-03-13T16:28:14.541Z,49.80
2023-03-13T16:30:43.544Z,49.90
2023-03-13T16:33:11.200Z,50.00
2023-03-13T16:35:38.769Z,50.10
2023-03-13T16:38:08.208Z,50.10
2023-03-13T16:40:35.368Z,50.00
2023-03-13T16:43:02.279Z,50.10
2023-03-13T16:45:28.957Z,50.10
2023-03-13T16:47:55.589Z,50.10
2023-03-13T16:50:38.363Z,50.20
2023-03-13T16:53:05.096Z,49.90
2023-03-13T16:55:36.180Z,50.20
2023-03-13T16:58:04.066Z,50.80
2023-03-13T17:00:31.816Z,50.00
2023-03-13T17:02:58.825Z,50.00
2023-03-13T17:05:27.077Z,50.10
2023-03-13T17:07:54.223Z,50.00
2023-03-13T17:10:22.294Z,50.30
2023-03-13T17:12:49.720Z,50.30
2023-03-13T17:15:17.486Z,50.60
2023-03-13T17:17:48.590Z,50.20
2023-03-13T17:20:16.282Z,50.10
2023-03-13T17:22:43.034Z,50.60
2023-03-13T17:25:10.154Z,50.20
2023-03-13T17:27:37.431Z,50.20
2023-03-13T17:30:34.743Z,50.10
2023-03-13T17:33:01.427Z,50.90
2023-03-13T17:35:28.068Z,50.80
2023-03-13T17:37:54.738Z,50.70
2023-03-13T17:40:24.448Z,50.30
2023-03-13T17:42:51.289Z,50.40
2023-03-13T17:45:18.847Z,50.20
2023-03-13T17:47:45.501Z,50.20
2023-03-13T17:50:39.288Z,50.10
2023-03-13T17:53:05.965Z,50.20
2023-03-13T17:55:32.513Z,50.90
2023-03-13T17:57:59.070Z,50.20
2023-03-13T18:00:31.750Z,50.20
2023-03-13T18:02:59.370Z,50.30
2023-03-13T18:05:26.562Z,50.30
2023-03-13T18:07:55.945Z,50.20
2023-03-13T18:10:25.532Z,50.20
2023-03-13T18:12:52.449Z,50.20
2023-03-13T18:15:20.294Z,50.30
2023-03-13T18:17:47.013Z,50.40
2023-03-13T18:20:17.628Z,50.40
2023-03-13T18:22:44.354Z,50.40
2023-03-13T18:25:11.146Z,50.40
2023-03-13T18:27:37.733Z,50.60
2023-03-13T18:30:11.302Z,51.20
2023-03-13T18:32:37.970Z,51.10
2023-03-13T18:35:05.000Z,50.90
2023-03-13T18:37:33.100Z,50.80
2023-03-13T18:40:00.309Z,50.80
2023-03-13T18:42:27.781Z,50.70
2023-03-13T18:44:54.451Z,50.70
2023-03-13T18:47:24.981Z,50.80
2023-03-13T18:49:51.683Z,50.80
2023-03-13T18:52:18.502Z,50.80
2023-03-13T18:54:45.203Z,50.90
2023-03-13T18:57:18.070Z,50.80
2023-03-13T18:59:45.868Z,50.90
2023-03-13T19:02:15.531Z,50.90
2023-03-13T19:04:43.286Z,51.40
2023-03-13T19:07:23.379Z,51.10
2023-03-13T19:09:49.942Z,51.00
2023-03-13T19:12:16.577Z,51.20
2023-03-13T19:14:43.957Z,51.30
2023-03-13T19:17:22.813Z,51.20
2023-03-13T19:19:49.471Z,51.10
2023-03-13T19:22:16.105Z,51.10
2023-03-13T19:24:42.826Z,51.00
2023-03-13T19:27:13.860Z,50.60
2023-03-13T19:29:40.638Z,51.30
2023-03-13T19:32:10.385Z,51.40
2023-03-13T19:34:36.968Z,51.50
2023-03-13T19:37:03.541Z,51.50
2023-03-13T19:39:30.388Z,51.10
2023-03-13T19:41:58.547Z,51.20
2023-03-13T19:44:25.366Z,51.20
2023-03-13T19:46:54.549Z,51.20
2023-03-13T19:49:22.784Z,51.30
2023-03-13T19:51:49.418Z,51.30
2023-03-13T19:54:16.020Z,51.30
2023-03-13T19:56:44.953Z,51.60
2023-03-13T19:59:17.327Z,51.50
2023-03-13T20:01:44.485Z,51.40
2023-03-13T20:04:12.244Z,51.40
2023-03-13T20:06:40.210Z,51.30
2023-03-13T20:09:11.843Z,51.40
2023-03-13T20:11:39.016Z,51.30
2023-03-13T20:14:06.043Z,51.40
2023-03-13T20:16:34.936Z,51.70
2023-03-13T20:19:02.178Z,51.70
2023-03-13T20:21:34.111Z,52.10
2023-03-13T20:24:01.267Z,52.30
2023-03-13T20:26:29.277Z,52.40
2023-03-13T20:28:56.513Z,52.60
2023-03-13T20:31:26.717Z,52.70
2023-03-13T20:33:55.176Z,52.90
2023-03-13T20:36:22.329Z,53.20
2023-03-13T20:38:48.882Z,52.80
2023-03-13T20:41:16.478Z,53.00
2023-03-13T20:43:43.275Z,53.20
2023-03-13T20:46:09.965Z,53.50
2023-03-13T20:48:39.163Z,53.70
2023-03-13T20:51:07.836Z,53.80
2023-03-13T20:53:36.729Z,54.00
2023-03-13T20:56:06.399Z,54.10
2023-03-13T20:58:33.915Z,54.20
2023-03-13T21:01:02.079Z,54.30
2023-03-13T21:03:28.972Z,54.40
2023-03-13T21:05:55.618Z,54.50
2023-03-13T21:08:22.837Z,54.70
2023-03-13T21:10:49.534Z,54.70
2023-03-13T21:13:16.167Z,54.80
2023-03-13T21:15:42.779Z,54.80
2023-03-13T21:18:09.588Z,54.90
2023-03-13T21:20:38.303Z,55.00
2023-03-13T21:23:04.891Z,55.20
2023-03-13T21:25:31.556Z,55.10
2023-03-13T21:27:58.189Z,55.30
2023-03-13T21:30:24.967Z,55.40
2023-03-13T21:32:51.635Z,55.50
2023-03-13T21:35:18.748Z,55.60
2023-03-13T21:37:45.535Z,55.70
2023-03-13T21:40:13.023Z,57.40
2023-03-13T21:42:39.889Z,55.80
2023-03-13T21:45:07.614Z,56.30
2023-03-13T21:47:37.820Z,55.60
2023-03-13T21:50:06.938Z,55.60
2023-03-13T21:52:40.565Z,55.20
2023-03-13T21:55:10.148Z,55.40
2023-03-13T21:57:36.800Z,54.70
2023-03-13T22:00:07.852Z,54.60
2023-03-13T22:02:37.612Z,54.90
2023-03-13T22:05:05.489Z,55.20
2023-03-13T22:07:32.384Z,55.10
2023-03-13T22:09:59.047Z,55.00
2023-03-13T22:12:26.341Z,55.00
2023-03-13T22:14:55.616Z,55.00
2023-03-13T22:17:23.199Z,54.90
2023-03-13T22:19:49.879Z,54.90
2023-03-13T22:22:17.277Z,55.00
2023-03-13T22:24:43.885Z,54.90
2023-03-13T22:27:10.762Z,65.50
2023-03-13T22:29:37.281Z,61.00
2023-03-13T22:32:04.248Z,61.70
2023-03-13T22:34:31.179Z,63.70
2023-03-13T22:36:57.688Z,63.30
2023-03-13T22:39:24.323Z,63.90
2023-03-13T22:41:50.986Z,64.20
2023-03-13T22:44:17.641Z,64.60
2023-03-13T22:46:44.230Z,65.40
2023-03-13T22:49:10.788Z,66.30
2023-03-13T22:51:37.332Z,67.00
2023-03-13T22:54:04.067Z,66.60
2023-03-13T22:56:30.654Z,64.90
2023-03-13T22:58:57.370Z,66.80
2023-03-13T23:01:24.185Z,66.00
2023-03-13T23:03:51.019Z,68.10
2023-03-13T23:06:19.172Z,67.60
2023-03-13T23:08:45.881Z,67.90
2023-03-13T23:11:12.574Z,67.60
2023-03-13T23:13:39.306Z,66.70
2023-03-13T23:16:06.547Z,66.30
2023-03-13T23:18:33.213Z,67.50
2023-03-13T23:21:03.501Z,68.10
2023-03-13T23:23:29.987Z,69.10
2023-03-13T23:25:58.768Z,68.00
2023-03-13T23:28:25.319Z,66.90
2023-03-13T23:30:51.892Z,66.80
2023-03-13T23:33:18.452Z,67.20
2023-03-13T23:35:45.746Z,66.50
2023-03-13T23:38:12.431Z,66.60
2023-03-13T23:40:38.922Z,65.40
2023-03-13T23:43:05.518Z,66.10
2023-03-13T23:45:34.906Z,64.80
2023-03-13T23:48:01.404Z,65.20
2023-03-13T23:50:27.920Z,65.50
2023-03-13T23:52:55.580Z,61.90
2023-03-13T23:55:22.178Z,61.10
2023-03-13T23:57:49.621Z,60.90
